Terminal Aerodrome Forecast
Issued by NWS San Angelo, TX

Home | Current Version | Previous Version | Text Only | Print | Product List | Glossary On
Versions: 1 2 3 4 5 6 7 8 9 10 11 12 13 14 15 16 17 18 19 20 21 22 23 24
000
FTUS44 KSJT 072100 AAB
TAFSJT
TAF AMD
KSJT 072124Z 0721/0818 18010KT P6SM SCT060 SCT070 OVC100
      TEMPO 0721/0724 P6SM -RA BKN040 OVC060
     FM080000 18010KT 5SM SHRA VCTS OVC040CB
     FM080200 18010KT 5SM SHRA VCTS BKN025CB
     FM081200 17010KT P6SM BKN025=

USA.gov is the U.S. government's official web portal to all federal, state and local government web resources and services.